sensor_id;sensor_type;location;lat;lon;timestamp;P1;durP1;ratioP1;P2;durP2;ratioP2
65863;SDS011;52639;51.180;20.460;2023-05-18T00:02:04;20.88;;;10.45;;
65863;SDS011;52639;51.180;20.460;2023-05-18T00:06:12;21.00;;;10.02;;
65863;SDS011;52639;51.180;20.460;2023-05-18T00:10:16;22.52;;;9.30;;
65863;SDS011;52639;51.180;20.460;2023-05-18T00:14:22;20.92;;;8.98;;
65863;SDS011;52639;51.180;20.460;2023-05-18T00:18:26;14.90;;;7.50;;
65863;SDS011;52639;51.180;20.460;2023-05-18T00:22:34;15.15;;;6.30;;
65863;SDS011;52639;51.180;20.460;2023-05-18T00:26:39;21.60;;;9.57;;
65863;SDS011;52639;51.180;20.460;2023-05-18T00:30:44;22.88;;;8.55;;
65863;SDS011;52639;51.180;20.460;2023-05-18T00:34:47;18.75;;;7.90;;
65863;SDS011;52639;51.180;20.460;2023-05-18T00:38:56;13.65;;;6.72;;
65863;SDS011;52639;51.180;20.460;2023-05-18T00:43:03;19.63;;;8.68;;
65863;SDS011;52639;51.180;20.460;2023-05-18T00:47:07;21.65;;;8.80;;
65863;SDS011;52639;51.180;20.460;2023-05-18T00:51:11;18.40;;;7.65;;
65863;SDS011;52639;51.180;20.460;2023-05-18T00:55:21;20.38;;;8.32;;
65863;SDS011;52639;51.180;20.460;2023-05-18T00:59:24;13.75;;;6.57;;
65863;SDS011;52639;51.180;20.460;2023-05-18T01:03:28;15.45;;;7.05;;
65863;SDS011;52639;51.180;20.460;2023-05-18T01:07:31;14.13;;;6.50;;
65863;SDS011;52639;51.180;20.460;2023-05-18T01:11:39;16.25;;;6.18;;
65863;SDS011;52639;51.180;20.460;2023-05-18T01:15:53;13.90;;;5.47;;
65863;SDS011;52639;51.180;20.460;2023-05-18T01:20:11;9.52;;;4.22;;
65863;SDS011;52639;51.180;20.460;2023-05-18T01:24:25;11.15;;;3.40;;
65863;SDS011;52639;51.180;20.460;2023-05-18T01:28:39;14.55;;;3.97;;
65863;SDS011;52639;51.180;20.460;2023-05-18T01:32:46;10.65;;;3.92;;
65863;SDS011;52639;51.180;20.460;2023-05-18T01:36:54;10.45;;;4.20;;
65863;SDS011;52639;51.180;20.460;2023-05-18T01:41:02;13.75;;;3.60;;
65863;SDS011;52639;51.180;20.460;2023-05-18T01:45:14;13.40;;;4.07;;
65863;SDS011;52639;51.180;20.460;2023-05-18T01:49:25;13.60;;;3.83;;
65863;SDS011;52639;51.180;20.460;2023-05-18T01:53:32;15.07;;;4.07;;
65863;SDS011;52639;51.180;20.460;2023-05-18T01:57:41;13.13;;;4.63;;
65863;SDS011;52639;51.180;20.460;2023-05-18T02:01:54;6.53;;;3.33;;
65863;SDS011;52639;51.180;20.460;2023-05-18T02:06:00;12.57;;;4.38;;
65863;SDS011;52639;51.180;20.460;2023-05-18T02:10:04;14.85;;;4.07;;
65863;SDS011;52639;51.180;20.460;2023-05-18T02:14:07;10.90;;;3.33;;
65863;SDS011;52639;51.180;20.460;2023-05-18T02:18:12;6.32;;;3.30;;
65863;SDS011;52639;51.180;20.460;2023-05-18T02:22:16;13.02;;;3.53;;
65863;SDS011;52639;51.180;20.460;2023-05-18T02:26:23;10.32;;;3.30;;
65863;SDS011;52639;51.180;20.460;2023-05-18T02:30:26;8.63;;;3.22;;
65863;SDS011;52639;51.180;20.460;2023-05-18T02:34:34;14.73;;;4.57;;
65863;SDS011;52639;51.180;20.460;2023-05-18T02:38:44;15.52;;;3.58;;
65863;SDS011;52639;51.180;20.460;2023-05-18T02:42:48;11.05;;;3.80;;
65863;SDS011;52639;51.180;20.460;2023-05-18T02:46:53;16.63;;;4.07;;
65863;SDS011;52639;51.180;20.460;2023-05-18T02:51:03;9.95;;;2.90;;
65863;SDS011;52639;51.180;20.460;2023-05-18T02:55:07;14.65;;;3.20;;
65863;SDS011;52639;51.180;20.460;2023-05-18T02:59:16;6.80;;;2.60;;
65863;SDS011;52639;51.180;20.460;2023-05-18T03:03:19;7.57;;;2.90;;
65863;SDS011;52639;51.180;20.460;2023-05-18T03:07:25;11.27;;;3.28;;
65863;SDS011;52639;51.180;20.460;2023-05-18T03:11:29;11.07;;;3.22;;
65863;SDS011;52639;51.180;20.460;2023-05-18T03:15:32;8.73;;;2.70;;
65863;SDS011;52639;51.180;20.460;2023-05-18T03:19:38;8.85;;;2.47;;
65863;SDS011;52639;51.180;20.460;2023-05-18T03:23:42;12.48;;;2.97;;
65863;SDS011;52639;51.180;20.460;2023-05-18T03:27:49;7.75;;;3.10;;
65863;SDS011;52639;51.180;20.460;2023-05-18T03:31:54;12.45;;;3.10;;
65863;SDS011;52639;51.180;20.460;2023-05-18T03:35:58;9.82;;;3.00;;
65863;SDS011;52639;51.180;20.460;2023-05-18T03:40:12;11.23;;;3.55;;
65863;SDS011;52639;51.180;20.460;2023-05-18T03:44:21;11.68;;;3.70;;
65863;SDS011;52639;51.180;20.460;2023-05-18T03:48:25;10.75;;;3.95;;
65863;SDS011;52639;51.180;20.460;2023-05-18T03:52:30;11.13;;;3.40;;
65863;SDS011;52639;51.180;20.460;2023-05-18T03:56:38;9.23;;;2.90;;
65863;SDS011;52639;51.180;20.460;2023-05-18T04:00:45;8.00;;;3.13;;
65863;SDS011;52639;51.180;20.460;2023-05-18T04:04:54;9.23;;;2.83;;
65863;SDS011;52639;51.180;20.460;2023-05-18T04:08:59;9.23;;;3.20;;
65863;SDS011;52639;51.180;20.460;2023-05-18T04:13:06;6.63;;;3.10;;
65863;SDS011;52639;51.180;20.460;2023-05-18T04:17:12;8.18;;;2.75;;
65863;SDS011;52639;51.180;20.460;2023-05-18T04:21:15;11.40;;;3.40;;
65863;SDS011;52639;51.180;20.460;2023-05-18T04:25:19;9.07;;;3.53;;
65863;SDS011;52639;51.180;20.460;2023-05-18T04:29:29;12.65;;;2.70;;
65863;SDS011;52639;51.180;20.460;2023-05-18T04:33:46;8.00;;;3.13;;
65863;SDS011;52639;51.180;20.460;2023-05-18T04:37:51;10.60;;;3.28;;
65863;SDS011;52639;51.180;20.460;2023-05-18T04:41:55;5.72;;;2.58;;
65863;SDS011;52639;51.180;20.460;2023-05-18T04:46:01;8.98;;;2.60;;
65863;SDS011;52639;51.180;20.460;2023-05-18T04:50:09;8.75;;;2.85;;
65863;SDS011;52639;51.180;20.460;2023-05-18T04:54:13;10.18;;;3.30;;
65863;SDS011;52639;51.180;20.460;2023-05-18T04:58:17;9.30;;;2.38;;
65863;SDS011;52639;51.180;20.460;2023-05-18T05:02:22;9.27;;;2.38;;
65863;SDS011;52639;51.180;20.460;2023-05-18T05:06:25;11.50;;;2.75;;
65863;SDS011;52639;51.180;20.460;2023-05-18T05:10:28;9.70;;;2.75;;
65863;SDS011;52639;51.180;20.460;2023-05-18T05:14:32;7.07;;;2.40;;
65863;SDS011;52639;51.180;20.460;2023-05-18T05:18:37;10.43;;;2.80;;
65863;SDS011;52639;51.180;20.460;2023-05-18T05:22:41;9.50;;;2.60;;
65863;SDS011;52639;51.180;20.460;2023-05-18T05:26:44;11.05;;;2.47;;
65863;SDS011;52639;51.180;20.460;2023-05-18T05:30:47;10.07;;;2.60;;
65863;SDS011;52639;51.180;20.460;2023-05-18T05:34:52;10.07;;;2.45;;
65863;SDS011;52639;51.180;20.460;2023-05-18T05:38:55;4.15;;;2.00;;
65863;SDS011;52639;51.180;20.460;2023-05-18T05:43:01;6.30;;;2.30;;
65863;SDS011;52639;51.180;20.460;2023-05-18T05:47:06;6.78;;;1.80;;
65863;SDS011;52639;51.180;20.460;2023-05-18T05:51:11;8.23;;;2.40;;
65863;SDS011;52639;51.180;20.460;2023-05-18T05:55:14;8.77;;;2.00;;
65863;SDS011;52639;51.180;20.460;2023-05-18T05:59:20;7.25;;;2.60;;
65863;SDS011;52639;51.180;20.460;2023-05-18T06:03:23;7.35;;;1.90;;
65863;SDS011;52639;51.180;20.460;2023-05-18T06:07:33;6.88;;;2.42;;
65863;SDS011;52639;51.180;20.460;2023-05-18T06:11:40;9.87;;;2.20;;
65863;SDS011;52639;51.180;20.460;2023-05-18T06:15:43;7.85;;;2.40;;
65863;SDS011;52639;51.180;20.460;2023-05-18T06:19:47;8.13;;;2.00;;
65863;SDS011;52639;51.180;20.460;2023-05-18T06:23:53;6.65;;;2.28;;
65863;SDS011;52639;51.180;20.460;2023-05-18T06:27:58;11.30;;;2.30;;
65863;SDS011;52639;51.180;20.460;2023-05-18T06:32:02;4.43;;;1.88;;
65863;SDS011;52639;51.180;20.460;2023-05-18T06:36:05;8.52;;;2.03;;
65863;SDS011;52639;51.180;20.460;2023-05-18T06:40:10;9.15;;;2.22;;
65863;SDS011;52639;51.180;20.460;2023-05-18T06:44:15;11.25;;;2.42;;
65863;SDS011;52639;51.180;20.460;2023-05-18T06:48:18;6.32;;;2.20;;
65863;SDS011;52639;51.180;20.460;2023-05-18T06:52:21;4.80;;;1.95;;
65863;SDS011;52639;51.180;20.460;2023-05-18T06:56:26;3.20;;;1.80;;
65863;SDS011;52639;51.180;20.460;2023-05-18T07:00:29;4.90;;;2.00;;
65863;SDS011;52639;51.180;20.460;2023-05-18T07:04:34;11.05;;;2.60;;
65863;SDS011;52639;51.180;20.460;2023-05-18T07:08:38;7.05;;;2.03;;
65863;SDS011;52639;51.180;20.460;2023-05-18T07:12:46;2.92;;;1.27;;
65863;SDS011;52639;51.180;20.460;2023-05-18T07:16:55;4.93;;;2.00;;
65863;SDS011;52639;51.180;20.460;2023-05-18T07:20:59;8.73;;;1.95;;
65863;SDS011;52639;51.180;20.460;2023-05-18T07:25:07;3.13;;;1.60;;
65863;SDS011;52639;51.180;20.460;2023-05-18T07:29:14;8.75;;;2.00;;
65863;SDS011;52639;51.180;20.460;2023-05-18T07:33:17;6.68;;;2.22;;
65863;SDS011;52639;51.180;20.460;2023-05-18T07:37:20;4.45;;;1.73;;
65863;SDS011;52639;51.180;20.460;2023-05-18T07:41:24;7.90;;;1.90;;
65863;SDS011;52639;51.180;20.460;2023-05-18T07:45:29;5.57;;;2.10;;
65863;SDS011;52639;51.180;20.460;2023-05-18T07:49:40;6.35;;;1.83;;
65863;SDS011;52639;51.180;20.460;2023-05-18T07:53:47;5.78;;;1.67;;
65863;SDS011;52639;51.180;20.460;2023-05-18T07:58:11;8.63;;;3.13;;
65863;SDS011;52639;51.180;20.460;2023-05-18T08:02:16;7.15;;;2.20;;
65863;SDS011;52639;51.180;20.460;2023-05-18T08:06:20;4.28;;;1.65;;
65863;SDS011;52639;51.180;20.460;2023-05-18T08:10:23;5.45;;;1.67;;
65863;SDS011;52639;51.180;20.460;2023-05-18T08:14:28;6.45;;;1.65;;
65863;SDS011;52639;51.180;20.460;2023-05-18T08:18:34;8.00;;;2.17;;
65863;SDS011;52639;51.180;20.460;2023-05-18T08:37:23;6.50;;;2.00;;
65863;SDS011;52639;51.180;20.460;2023-05-18T08:41:29;3.30;;;1.40;;
65863;SDS011;52639;51.180;20.460;2023-05-18T08:45:38;7.90;;;1.77;;
65863;SDS011;52639;51.180;20.460;2023-05-18T08:49:45;6.60;;;2.25;;
65863;SDS011;52639;51.180;20.460;2023-05-18T08:53:54;5.68;;;2.58;;
65863;SDS011;52639;51.180;20.460;2023-05-18T08:58:01;13.32;;;5.85;;
65863;SDS011;52639;51.180;20.460;2023-05-18T09:02:07;2.78;;;1.60;;
65863;SDS011;52639;51.180;20.460;2023-05-18T09:06:12;6.55;;;3.10;;
65863;SDS011;52639;51.180;20.460;2023-05-18T09:10:21;5.53;;;1.60;;
65863;SDS011;52639;51.180;20.460;2023-05-18T09:14:28;6.38;;;1.80;;
65863;SDS011;52639;51.180;20.460;2023-05-18T09:18:33;3.40;;;1.50;;
65863;SDS011;52639;51.180;20.460;2023-05-18T09:22:40;2.85;;;1.30;;
65863;SDS011;52639;51.180;20.460;2023-05-18T09:26:47;4.07;;;1.60;;
65863;SDS011;52639;51.180;20.460;2023-05-18T09:30:56;3.28;;;1.38;;
65863;SDS011;52639;51.180;20.460;2023-05-18T09:35:03;6.82;;;1.70;;
65863;SDS011;52639;51.180;20.460;2023-05-18T09:39:07;4.28;;;1.30;;
65863;SDS011;52639;51.180;20.460;2023-05-18T09:43:14;2.90;;;1.80;;
65863;SDS011;52639;51.180;20.460;2023-05-18T09:47:22;6.30;;;1.65;;
65863;SDS011;52639;51.180;20.460;2023-05-18T09:51:33;5.45;;;2.13;;
65863;SDS011;52639;51.180;20.460;2023-05-18T09:55:37;7.50;;;1.75;;
65863;SDS011;52639;51.180;20.460;2023-05-18T09:59:53;11.90;;;2.00;;
65863;SDS011;52639;51.180;20.460;2023-05-18T10:04:01;5.07;;;1.80;;
65863;SDS011;52639;51.180;20.460;2023-05-18T10:08:06;4.78;;;1.58;;
65863;SDS011;52639;51.180;20.460;2023-05-18T10:12:11;8.13;;;1.77;;
65863;SDS011;52639;51.180;20.460;2023-05-18T10:16:28;3.58;;;1.70;;
65863;SDS011;52639;51.180;20.460;2023-05-18T10:20:31;4.93;;;1.80;;
65863;SDS011;52639;51.180;20.460;2023-05-18T10:24:37;5.03;;;1.70;;
65863;SDS011;52639;51.180;20.460;2023-05-18T10:28:44;6.55;;;1.73;;
65863;SDS011;52639;51.180;20.460;2023-05-18T10:43:23;2.45;;;1.50;;
65863;SDS011;52639;51.180;20.460;2023-05-18T10:47:27;3.92;;;1.60;;
65863;SDS011;52639;51.180;20.460;2023-05-18T10:51:32;4.40;;;2.13;;
65863;SDS011;52639;51.180;20.460;2023-05-18T10:55:37;5.35;;;2.30;;
65863;SDS011;52639;51.180;20.460;2023-05-18T10:59:42;4.70;;;1.55;;
65863;SDS011;52639;51.180;20.460;2023-05-18T11:03:48;4.35;;;1.60;;
65863;SDS011;52639;51.180;20.460;2023-05-18T11:07:58;4.13;;;1.60;;
65863;SDS011;52639;51.180;20.460;2023-05-18T11:12:05;6.68;;;2.08;;
65863;SDS011;52639;51.180;20.460;2023-05-18T11:16:18;3.65;;;1.80;;
65863;SDS011;52639;51.180;20.460;2023-05-18T11:20:24;4.50;;;1.85;;
65863;SDS011;52639;51.180;20.460;2023-05-18T11:24:29;5.38;;;1.80;;
65863;SDS011;52639;51.180;20.460;2023-05-18T11:28:36;25.45;;;3.83;;
65863;SDS011;52639;51.180;20.460;2023-05-18T11:32:50;2.83;;;1.75;;
65863;SDS011;52639;51.180;20.460;2023-05-18T11:36:57;5.32;;;1.83;;
65863;SDS011;52639;51.180;20.460;2023-05-18T11:50:25;3.08;;;1.50;;
65863;SDS011;52639;51.180;20.460;2023-05-18T11:54:39;4.63;;;1.50;;
65863;SDS011;52639;51.180;20.460;2023-05-18T11:59:31;5.90;;;1.75;;
65863;SDS011;52639;51.180;20.460;2023-05-18T12:03:47;5.18;;;1.70;;
65863;SDS011;52639;51.180;20.460;2023-05-18T12:08:03;3.60;;;1.77;;
65863;SDS011;52639;51.180;20.460;2023-05-18T12:12:09;8.32;;;2.50;;
65863;SDS011;52639;51.180;20.460;2023-05-18T12:16:14;5.13;;;1.75;;
65863;SDS011;52639;51.180;20.460;2023-05-18T12:20:17;3.13;;;1.88;;
65863;SDS011;52639;51.180;20.460;2023-05-18T12:24:26;2.13;;;1.27;;
65863;SDS011;52639;51.180;20.460;2023-05-18T12:28:30;3.03;;;1.40;;
65863;SDS011;52639;51.180;20.460;2023-05-18T12:32:33;2.38;;;1.30;;
65863;SDS011;52639;51.180;20.460;2023-05-18T12:36:39;3.40;;;1.42;;
65863;SDS011;52639;51.180;20.460;2023-05-18T12:40:46;3.95;;;1.42;;
65863;SDS011;52639;51.180;20.460;2023-05-18T12:44:50;5.78;;;1.70;;
65863;SDS011;52639;51.180;20.460;2023-05-18T12:48:57;4.30;;;1.50;;
65863;SDS011;52639;51.180;20.460;2023-05-18T12:53:08;4.18;;;1.73;;
65863;SDS011;52639;51.180;20.460;2023-05-18T12:57:13;4.80;;;1.92;;
65863;SDS011;52639;51.180;20.460;2023-05-18T13:01:16;7.18;;;1.95;;
65863;SDS011;52639;51.180;20.460;2023-05-18T13:05:22;3.70;;;1.52;;
65863;SDS011;52639;51.180;20.460;2023-05-18T13:09:25;4.10;;;1.90;;
65863;SDS011;52639;51.180;20.460;2023-05-18T13:13:30;5.10;;;1.58;;
65863;SDS011;52639;51.180;20.460;2023-05-18T13:17:36;4.22;;;1.63;;
65863;SDS011;52639;51.180;20.460;2023-05-18T13:21:41;5.20;;;1.70;;
65863;SDS011;52639;51.180;20.460;2023-05-18T13:25:48;5.57;;;1.73;;
65863;SDS011;52639;51.180;20.460;2023-05-18T13:29:53;6.65;;;2.00;;
65863;SDS011;52639;51.180;20.460;2023-05-18T13:33:59;7.03;;;2.53;;
65863;SDS011;52639;51.180;20.460;2023-05-18T13:38:03;4.68;;;1.67;;
65863;SDS011;52639;51.180;20.460;2023-05-18T13:42:07;7.63;;;2.13;;
65863;SDS011;52639;51.180;20.460;2023-05-18T13:46:17;4.50;;;1.73;;
65863;SDS011;52639;51.180;20.460;2023-05-18T13:50:20;8.05;;;2.03;;
65863;SDS011;52639;51.180;20.460;2023-05-18T13:54:23;3.88;;;1.90;;
65863;SDS011;52639;51.180;20.460;2023-05-18T13:58:29;3.92;;;1.80;;
65863;SDS011;52639;51.180;20.460;2023-05-18T14:02:34;7.50;;;2.28;;
65863;SDS011;52639;51.180;20.460;2023-05-18T14:06:37;3.60;;;1.98;;
65863;SDS011;52639;51.180;20.460;2023-05-18T14:10:41;4.05;;;1.95;;
65863;SDS011;52639;51.180;20.460;2023-05-18T14:14:44;3.03;;;1.67;;
65863;SDS011;52639;51.180;20.460;2023-05-18T14:18:49;3.50;;;2.20;;
65863;SDS011;52639;51.180;20.460;2023-05-18T14:22:53;4.20;;;2.33;;
65863;SDS011;52639;51.180;20.460;2023-05-18T14:26:56;9.13;;;5.13;;
65863;SDS011;52639;51.180;20.460;2023-05-18T14:52:52;2.95;;;1.58;;
65863;SDS011;52639;51.180;20.460;2023-05-18T14:56:56;3.38;;;1.70;;
65863;SDS011;52639;51.180;20.460;2023-05-18T15:01:03;2.90;;;1.52;;
65863;SDS011;52639;51.180;20.460;2023-05-18T15:05:11;2.72;;;1.60;;
65863;SDS011;52639;51.180;20.460;2023-05-18T15:09:21;4.82;;;2.00;;
65863;SDS011;52639;51.180;20.460;2023-05-18T15:13:26;4.93;;;2.10;;
65863;SDS011;52639;51.180;20.460;2023-05-18T15:17:34;3.55;;;2.05;;
65863;SDS011;52639;51.180;20.460;2023-05-18T15:21:39;4.75;;;2.20;;
65863;SDS011;52639;51.180;20.460;2023-05-18T15:26:05;6.57;;;3.25;;
65863;SDS011;52639;51.180;20.460;2023-05-18T15:30:15;5.07;;;2.30;;
65863;SDS011;52639;51.180;20.460;2023-05-18T15:34:52;5.03;;;2.70;;
65863;SDS011;52639;51.180;20.460;2023-05-18T15:39:05;3.47;;;1.85;;
65863;SDS011;52639;51.180;20.460;2023-05-18T15:57:26;4.50;;;2.50;;
65863;SDS011;52639;51.180;20.460;2023-05-18T16:01:29;7.55;;;3.63;;
65863;SDS011;52639;51.180;20.460;2023-05-18T16:05:33;6.47;;;2.70;;
65863;SDS011;52639;51.180;20.460;2023-05-18T16:09:38;16.25;;;5.97;;
65863;SDS011;52639;51.180;20.460;2023-05-18T16:13:42;7.60;;;3.75;;
65863;SDS011;52639;51.180;20.460;2023-05-18T16:17:46;10.63;;;4.70;;
65863;SDS011;52639;51.180;20.460;2023-05-18T16:21:50;6.28;;;3.38;;
65863;SDS011;52639;51.180;20.460;2023-05-18T16:25:53;5.35;;;2.60;;
65863;SDS011;52639;51.180;20.460;2023-05-18T16:29:58;4.63;;;2.30;;
65863;SDS011;52639;51.180;20.460;2023-05-18T16:34:01;6.88;;;3.15;;
65863;SDS011;52639;51.180;20.460;2023-05-18T16:38:07;5.40;;;2.63;;
65863;SDS011;52639;51.180;20.460;2023-05-18T16:42:13;6.00;;;3.13;;
65863;SDS011;52639;51.180;20.460;2023-05-18T16:46:17;4.65;;;3.00;;
65863;SDS011;52639;51.180;20.460;2023-05-18T16:50:21;5.60;;;3.10;;
65863;SDS011;52639;51.180;20.460;2023-05-18T16:54:24;6.40;;;3.00;;
65863;SDS011;52639;51.180;20.460;2023-05-18T16:58:27;7.25;;;2.95;;
65863;SDS011;52639;51.180;20.460;2023-05-18T17:06:36;9.60;;;3.25;;
65863;SDS011;52639;51.180;20.460;2023-05-18T17:10:40;5.43;;;2.85;;
65863;SDS011;52639;51.180;20.460;2023-05-18T17:14:46;6.70;;;3.17;;
65863;SDS011;52639;51.180;20.460;2023-05-18T17:18:54;7.05;;;3.80;;
65863;SDS011;52639;51.180;20.460;2023-05-18T17:23:01;12.38;;;6.47;;
65863;SDS011;52639;51.180;20.460;2023-05-18T17:27:07;15.05;;;9.15;;
65863;SDS011;52639;51.180;20.460;2023-05-18T17:35:33;14.05;;;5.60;;
65863;SDS011;52639;51.180;20.460;2023-05-18T17:39:36;9.65;;;4.00;;
65863;SDS011;52639;51.180;20.460;2023-05-18T17:43:39;11.45;;;5.35;;
65863;SDS011;52639;51.180;20.460;2023-05-18T17:47:42;25.45;;;15.40;;
65863;SDS011;52639;51.180;20.460;2023-05-18T17:51:47;8.55;;;3.83;;
65863;SDS011;52639;51.180;20.460;2023-05-18T17:55:52;17.48;;;8.80;;
65863;SDS011;52639;51.180;20.460;2023-05-18T17:59:55;16.92;;;6.30;;
65863;SDS011;52639;51.180;20.460;2023-05-18T18:03:58;8.02;;;3.35;;
65863;SDS011;52639;51.180;20.460;2023-05-18T18:12:10;10.00;;;4.07;;
65863;SDS011;52639;51.180;20.460;2023-05-18T18:16:15;8.73;;;3.67;;
65863;SDS011;52639;51.180;20.460;2023-05-18T18:20:24;6.80;;;3.50;;
65863;SDS011;52639;51.180;20.460;2023-05-18T18:24:28;10.77;;;4.07;;
65863;SDS011;52639;51.180;20.460;2023-05-18T18:28:35;11.02;;;5.95;;
65863;SDS011;52639;51.180;20.460;2023-05-18T18:32:54;15.95;;;6.95;;
65863;SDS011;52639;51.180;20.460;2023-05-18T18:37:01;14.02;;;6.55;;
65863;SDS011;52639;51.180;20.460;2023-05-18T18:41:38;16.33;;;5.22;;
65863;SDS011;52639;51.180;20.460;2023-05-18T18:45:49;12.93;;;4.68;;
65863;SDS011;52639;51.180;20.460;2023-05-18T18:49:53;38.97;;;12.15;;
65863;SDS011;52639;51.180;20.460;2023-05-18T18:54:00;80.32;;;22.77;;
65863;SDS011;52639;51.180;20.460;2023-05-18T18:58:04;49.22;;;14.95;;
65863;SDS011;52639;51.180;20.460;2023-05-18T19:02:09;9.90;;;4.18;;
65863;SDS011;52639;51.180;20.460;2023-05-18T19:06:15;12.95;;;4.90;;
65863;SDS011;52639;51.180;20.460;2023-05-18T19:10:21;11.07;;;5.05;;
65863;SDS011;52639;51.180;20.460;2023-05-18T19:14:24;22.10;;;8.93;;
65863;SDS011;52639;51.180;20.460;2023-05-18T19:18:29;16.38;;;7.57;;
65863;SDS011;52639;51.180;20.460;2023-05-18T19:22:32;19.25;;;8.80;;
65863;SDS011;52639;51.180;20.460;2023-05-18T19:26:35;9.60;;;5.57;;
65863;SDS011;52639;51.180;20.460;2023-05-18T19:30:38;6.93;;;3.85;;
65863;SDS011;52639;51.180;20.460;2023-05-18T19:34:43;6.88;;;3.65;;
65863;SDS011;52639;51.180;20.460;2023-05-18T19:38:45;9.43;;;5.85;;
65863;SDS011;52639;51.180;20.460;2023-05-18T19:42:52;15.95;;;8.13;;
65863;SDS011;52639;51.180;20.460;2023-05-18T19:46:56;17.30;;;8.57;;
65863;SDS011;52639;51.180;20.460;2023-05-18T19:51:00;15.10;;;7.38;;
65863;SDS011;52639;51.180;20.460;2023-05-18T19:55:04;8.80;;;5.03;;
65863;SDS011;52639;51.180;20.460;2023-05-18T19:59:08;6.95;;;3.60;;
65863;SDS011;52639;51.180;20.460;2023-05-18T20:03:12;9.15;;;5.38;;
65863;SDS011;52639;51.180;20.460;2023-05-18T20:07:17;9.27;;;5.68;;
65863;SDS011;52639;51.180;20.460;2023-05-18T20:11:23;13.10;;;6.03;;
65863;SDS011;52639;51.180;20.460;2023-05-18T20:15:36;36.83;;;12.35;;
65863;SDS011;52639;51.180;20.460;2023-05-18T20:19:39;60.13;;;19.38;;
65863;SDS011;52639;51.180;20.460;2023-05-18T20:23:51;61.67;;;20.13;;
65863;SDS011;52639;51.180;20.460;2023-05-18T20:27:55;28.52;;;12.02;;
65863;SDS011;52639;51.180;20.460;2023-05-18T20:32:00;15.23;;;7.97;;
65863;SDS011;52639;51.180;20.460;2023-05-18T20:36:03;14.18;;;6.75;;
65863;SDS011;52639;51.180;20.460;2023-05-18T20:40:11;11.10;;;5.85;;
65863;SDS011;52639;51.180;20.460;2023-05-18T20:44:14;6.93;;;4.85;;
65863;SDS011;52639;51.180;20.460;2023-05-18T20:48:17;7.00;;;4.47;;
65863;SDS011;52639;51.180;20.460;2023-05-18T20:52:26;5.53;;;2.60;;
65863;SDS011;52639;51.180;20.460;2023-05-18T20:56:32;5.40;;;2.78;;
65863;SDS011;52639;51.180;20.460;2023-05-18T21:00:38;4.22;;;2.47;;
65863;SDS011;52639;51.180;20.460;2023-05-18T21:04:41;5.38;;;2.83;;
65863;SDS011;52639;51.180;20.460;2023-05-18T21:08:44;4.05;;;2.65;;
65863;SDS011;52639;51.180;20.460;2023-05-18T21:12:48;6.45;;;4.28;;
65863;SDS011;52639;51.180;20.460;2023-05-18T21:16:52;7.32;;;4.22;;
65863;SDS011;52639;51.180;20.460;2023-05-18T21:20:56;4.28;;;2.45;;
65863;SDS011;52639;51.180;20.460;2023-05-18T21:24:59;5.18;;;3.03;;
65863;SDS011;52639;51.180;20.460;2023-05-18T21:29:06;4.90;;;2.78;;
65863;SDS011;52639;51.180;20.460;2023-05-18T21:33:10;7.75;;;3.88;;
65863;SDS011;52639;51.180;20.460;2023-05-18T21:37:13;7.88;;;3.72;;
65863;SDS011;52639;51.180;20.460;2023-05-18T21:41:16;4.65;;;2.38;;
65863;SDS011;52639;51.180;20.460;2023-05-18T21:45:20;6.28;;;2.60;;
65863;SDS011;52639;51.180;20.460;2023-05-18T21:49:24;3.40;;;2.20;;
65863;SDS011;52639;51.180;20.460;2023-05-18T21:53:27;3.67;;;2.38;;
65863;SDS011;52639;51.180;20.460;2023-05-18T21:57:31;4.80;;;2.40;;
65863;SDS011;52639;51.180;20.460;2023-05-18T22:01:36;3.78;;;2.20;;
65863;SDS011;52639;51.180;20.460;2023-05-18T22:05:39;7.55;;;2.40;;
65863;SDS011;52639;51.180;20.460;2023-05-18T22:09:44;3.53;;;2.20;;
65863;SDS011;52639;51.180;20.460;2023-05-18T22:13:47;6.00;;;2.85;;
65863;SDS011;52639;51.180;20.460;2023-05-18T22:17:51;9.43;;;3.88;;
65863;SDS011;52639;51.180;20.460;2023-05-18T22:21:58;5.50;;;2.80;;
65863;SDS011;52639;51.180;20.460;2023-05-18T22:26:01;5.28;;;2.47;;
65863;SDS011;52639;51.180;20.460;2023-05-18T22:30:05;4.65;;;2.90;;
65863;SDS011;52639;51.180;20.460;2023-05-18T22:34:10;23.58;;;9.52;;
65863;SDS011;52639;51.180;20.460;2023-05-18T22:38:13;4.22;;;2.45;;
65863;SDS011;52639;51.180;20.460;2023-05-18T22:42:16;13.15;;;4.53;;
65863;SDS011;52639;51.180;20.460;2023-05-18T22:46:19;28.73;;;8.60;;
65863;SDS011;52639;51.180;20.460;2023-05-18T22:50:23;8.95;;;4.10;;
65863;SDS011;52639;51.180;20.460;2023-05-18T22:54:27;10.25;;;3.78;;
65863;SDS011;52639;51.180;20.460;2023-05-18T22:58:30;12.05;;;3.70;;
65863;SDS011;52639;51.180;20.460;2023-05-18T23:02:32;16.15;;;5.57;;
65863;SDS011;52639;51.180;20.460;2023-05-18T23:06:37;6.07;;;3.30;;
65863;SDS011;52639;51.180;20.460;2023-05-18T23:10:41;9.48;;;3.22;;
65863;SDS011;52639;51.180;20.460;2023-05-18T23:14:44;6.22;;;3.83;;
65863;SDS011;52639;51.180;20.460;2023-05-18T23:18:49;10.85;;;4.65;;
65863;SDS011;52639;51.180;20.460;2023-05-18T23:22:54;11.30;;;4.68;;
65863;SDS011;52639;51.180;20.460;2023-05-18T23:26:57;18.15;;;5.78;;
65863;SDS011;52639;51.180;20.460;2023-05-18T23:31:00;10.95;;;3.67;;
65863;SDS011;52639;51.180;20.460;2023-05-18T23:35:04;8.65;;;4.10;;
65863;SDS011;52639;51.180;20.460;2023-05-18T23:39:09;14.10;;;7.20;;
65863;SDS011;52639;51.180;20.460;2023-05-18T23:43:13;10.40;;;5.15;;
65863;SDS011;52639;51.180;20.460;2023-05-18T23:47:17;9.95;;;4.70;;
65863;SDS011;52639;51.180;20.460;2023-05-18T23:51:20;14.25;;;6.55;;
65863;SDS011;52639;51.180;20.460;2023-05-18T23:55:27;11.23;;;5.03;;
65863;SDS011;52639;51.180;20.460;2023-05-18T23:59:31;9.32;;;4.18;;
